Sault Sainte Marie, MI

9:08 PM EDT on October 24, 2014 (GMT -0400)
Mackinac Island | Change Station
CLOSE
Current Station
Airport
Location: Mackinac Island,
Elevation: 741 ft
Nearby Weather Stations

Elev 741 ft 45.87 °N, 84.64 °W | Updated 9 minutes ago

Overcast
Overcast
51 °F
Feels Like 51 °F
N
12
Wind Variable Wind from SW

Today
High -- | Low -- °F
--% Chance of Precip.
Yesterday
High -- | Low -- °F
Precip. -- in
8:07 AM 6:35 PM
New Moon, 1% visible
Pressure 29.89 in
Visibility 10.0 miles
Clouds Overcast 1300 ft
Dew Point 49 °F
Humidity 94%
Rainfall 0.00 in
Snow Depth Not available.
UV 0 out of 12
Pollen .60 out of 12
PM2.5 Good
Flu Activity Sporadic
METAR KMCD 250059Z AUTO 23010KT 10SM OVC013 11/10 A2989 RMK AO2 T01050095

More Conditions Fewer Conditions

Pressure 29.89 in
Visibility 10.0 miles
Clouds Overcast 1300 ft
Dew Point 49 °F
Humidity 94%
Rainfall 0.00 in
Snow Depth Not available.
UV 0 out of 12
Pollen .60 out of 12
PM2.5 Good
Flu Activity Sporadic
METAR KMCD 250059Z AUTO 23010KT 10SM OVC013 11/10 A2989 RMK AO2 T01050095

More Conditions Fewer Conditions

Nowcast | as of 9:00 PM EDT on October 24, 2014

At 10 PM...cloudy. Temperature 48. South winds 7 mph. At 12 am...cloudy. Temperature 47. South winds 7 mph. At 2 am...cloudy. Chance of rain showers. Temperature 48. South winds 7 mph. At 4 am...cloudy. Chance of rain showers. Temperature 49. Southwest winds 8 mph.

×

10-Day Weather Forecast

Almanac

Astronomy

Oct. 24, 2014 Rise Set
Actual Time 8:07 AM EDT 6:35 PM EDT
Civil Twilight 7:36 AM EDT 7:05 PM EDT
Nautical Twilight 7:01 AM EDT 7:41 PM EDT
Astronomical Twilight 6:26 AM EDT 8:15 PM EDT
Moon 8:47 AM EDT (10/24) 7:11 PM EDT (10/24)
Length of Visible Light 11h 29m
Length of Day
10h 27m
Tomorrow will be 3m 6s shorter.
New Moon, 1% of the Moon is Illuminated
Today
New Moon
Oct 30
First Quarter
Nov 6
Full
Nov 14
Last Quarter
Nov 22
New

Today's Extremes

State Highs State Lows

Community

WunderPhotos

Upload Photos

1,764,737 photos uploaded!

WunderBlogs® & News

Nearby

Air Quality

  Air Quality AQ Index Pollutant
Yesterday Good
PM2.5
Current Good
PM2.5
Friday Good
PM2.5
Saturday Good
PM2.5
Sunday Good
PM2.5
Monday Good
PM2.5

Snow Depth

Station Depth Elevation
No new snow has been reported.

Earthquake Activity

City Distance Mag. Time & Date
No recent earthquake activity has been reported nearby.
Minimum magnitude displayed is 2.5.

Coastal Water Temperatures

Place Temperature
De Tour Village, MI 50.0 °F
Rock Cut, MI 48.9 °F
Little Rapids, MI 52.0 °F
S W Pier, MI 51.1 °F
West Neebish, MI 52.0 °F

Nearby Weather Stations